createdAt,value
2019-04-20T00:00:39.930Z,14.13
2019-04-20T00:03:03.407Z,17.10
2019-04-20T00:05:33.038Z,12.17
2019-04-20T00:08:09.158Z,12.87
2019-04-20T00:10:42.500Z,17.97
2019-04-20T00:13:16.655Z,14.40
2019-04-20T00:15:34.621Z,13.67
2019-04-20T00:18:06.622Z,14.30
2019-04-20T00:20:36.914Z,16.93
2019-04-20T00:23:19.875Z,13.30
2019-04-20T00:26:10.454Z,14.33
2019-04-20T00:28:47.272Z,16.17
2019-04-20T00:31:20.782Z,13.93
2019-04-20T00:33:44.880Z,14.47
2019-04-20T00:36:03.215Z,16.00
2019-04-20T00:38:35.186Z,13.47
2019-04-20T00:41:07.584Z,16.90
2019-04-20T00:43:37.254Z,13.70
2019-04-20T00:46:10.325Z,15.13
2019-04-20T00:48:46.246Z,14.10
2019-04-20T00:51:24.096Z,13.43
2019-04-20T00:53:42.717Z,15.07
2019-04-20T00:56:07.684Z,13.90
2019-04-20T00:58:50.769Z,14.57
2019-04-20T01:01:31.058Z,13.53
2019-04-20T01:03:52.132Z,13.80
2019-04-20T01:06:46.625Z,16.97
2019-04-20T01:09:14.385Z,13.17
2019-04-20T01:11:45.467Z,13.83
2019-04-20T01:14:15.779Z,18.00
2019-04-20T01:16:52.534Z,18.93
2019-04-20T01:19:15.891Z,14.63
2019-04-20T01:21:52.570Z,13.07
2019-04-20T01:24:24.784Z,15.87
2019-04-20T01:26:50.586Z,18.03
2019-04-20T01:29:29.436Z,13.37
2019-04-20T01:32:02.305Z,16.30
2019-04-20T01:34:32.240Z,18.93
2019-04-20T01:37:05.642Z,15.90
2019-04-20T01:39:28.689Z,18.03
2019-04-20T01:41:51.994Z,15.00
2019-04-20T01:44:26.117Z,19.83
2019-04-20T01:46:57.068Z,16.10
2019-04-20T01:49:25.610Z,17.60
2019-04-20T01:52:04.891Z,16.47
2019-04-20T01:54:38.616Z,18.70
2019-04-20T01:57:25.969Z,19.00
2019-04-20T02:00:06.091Z,19.10
2019-04-20T02:02:41.594Z,18.63
2019-04-20T02:05:16.617Z,25.57
2019-04-20T02:07:45.458Z,21.63
2019-04-20T02:10:15.203Z,18.63
2019-04-20T02:12:47.457Z,17.50
2019-04-20T02:15:24.911Z,20.73
2019-04-20T02:17:59.801Z,20.73
2019-04-20T02:20:37.610Z,20.00
2019-04-20T02:23:03.204Z,16.53
2019-04-20T02:25:17.448Z,18.47
2019-04-20T02:27:53.166Z,21.80
2019-04-20T02:30:59.948Z,18.40
2019-04-20T02:36:25.478Z,19.00
2019-04-20T02:39:21.891Z,21.57
2019-04-20T02:41:38.048Z,22.50
2019-04-20T02:46:33.399Z,19.23
2019-04-20T02:49:10.596Z,20.03
2019-04-20T02:56:42.650Z,19.77
2019-04-20T02:59:42.324Z,22.07
2019-04-20T03:01:35.945Z,22.83
2019-04-20T03:03:51.002Z,23.53
2019-04-20T03:06:26.315Z,23.43
2019-04-20T03:09:08.895Z,19.90
2019-04-20T03:11:49.999Z,23.53
2019-04-20T03:14:11.108Z,20.60
2019-04-20T03:16:36.042Z,23.93
2019-04-20T03:19:03.060Z,22.03
2019-04-20T03:21:45.062Z,22.87
2019-04-20T03:24:23.817Z,20.97
2019-04-20T03:27:02.031Z,22.30
2019-04-20T03:29:52.659Z,23.00
2019-04-20T03:32:53.471Z,20.33
2019-04-20T03:35:05.279Z,24.30
2019-04-20T03:37:34.584Z,22.00
2019-04-20T03:39:54.096Z,21.67
2019-04-20T03:42:07.581Z,22.07
2019-04-20T03:44:39.082Z,23.23
2019-04-20T03:47:12.351Z,22.77
2019-04-20T03:50:01.319Z,25.10
2019-04-20T03:52:59.523Z,22.43
2019-04-20T03:55:43.171Z,24.83
2019-04-20T03:58:29.419Z,21.43
2019-04-20T04:01:05.018Z,20.00
2019-04-20T04:06:21.500Z,23.07
2019-04-20T04:08:48.594Z,22.90
2019-04-20T04:11:26.206Z,20.23
2019-04-20T04:13:38.224Z,24.33
2019-04-20T04:16:12.183Z,21.53
2019-04-20T04:18:43.849Z,19.73
2019-04-20T04:21:16.188Z,22.43
2019-04-20T04:23:59.024Z,22.73
2019-04-20T04:26:27.549Z,21.20
2019-04-20T04:29:06.926Z,22.63
2019-04-20T04:31:34.997Z,22.67
2019-04-20T04:34:20.662Z,21.90
2019-04-20T04:36:53.694Z,24.13
2019-04-20T04:39:25.225Z,21.87
2019-04-20T04:42:02.193Z,22.93
2019-04-20T04:44:20.241Z,24.37
2019-04-20T04:46:44.595Z,21.40
2019-04-20T04:49:17.853Z,22.10
2019-04-20T04:51:44.708Z,22.93
2019-04-20T04:54:19.508Z,18.63
2019-04-20T04:56:39.742Z,19.87
2019-04-20T04:59:08.785Z,22.20
2019-04-20T05:01:39.375Z,20.37
2019-04-20T05:04:25.131Z,20.70
2019-04-20T05:06:53.700Z,18.33
2019-04-20T05:09:12.333Z,20.60
2019-04-20T05:11:40.634Z,20.20
2019-04-20T05:14:15.028Z,19.33
2019-04-20T05:16:54.628Z,22.87
2019-04-20T05:19:29.490Z,19.83
2019-04-20T05:22:13.751Z,18.30
2019-04-20T05:24:48.079Z,19.33
2019-04-20T05:27:45.183Z,19.73
2019-04-20T05:29:59.087Z,17.23
2019-04-20T05:32:35.809Z,16.93
2019-04-20T05:35:25.478Z,18.63
2019-04-20T05:37:59.782Z,18.03
2019-04-20T05:40:22.227Z,17.97
2019-04-20T05:42:54.395Z,17.87
2019-04-20T05:45:21.772Z,20.07
2019-04-20T05:47:55.366Z,16.83
2019-04-20T05:50:27.691Z,19.90
2019-04-20T05:53:04.798Z,19.77
2019-04-20T05:55:27.954Z,18.53
2019-04-20T05:58:04.748Z,20.20
2019-04-20T06:00:38.956Z,20.53
2019-04-20T06:02:57.805Z,22.40
2019-04-20T06:05:36.321Z,26.73
2019-04-20T06:08:03.492Z,25.57
2019-04-20T06:10:41.853Z,22.97
2019-04-20T06:13:01.151Z,30.77
2019-04-20T06:15:46.616Z,24.53
2019-04-20T06:18:17.813Z,22.67
2019-04-20T06:20:54.775Z,19.77
2019-04-20T06:26:30.124Z,21.97
2019-04-20T06:28:37.739Z,20.00
2019-04-20T06:31:11.244Z,17.80
2019-04-20T06:34:39.918Z,20.00
2019-04-20T06:39:47.446Z,17.63
2019-04-20T06:49:42.419Z,21.57
2019-04-20T06:52:32.338Z,18.83
2019-04-20T06:55:28.940Z,19.17
2019-04-20T06:57:45.051Z,14.57
2019-04-20T07:00:15.590Z,14.27
2019-04-20T07:05:21.114Z,16.73
2019-04-20T07:07:47.608Z,16.50
2019-04-20T07:10:19.522Z,16.20
2019-04-20T07:12:45.082Z,16.40
2019-04-20T07:15:17.752Z,16.93
2019-04-20T07:20:54.091Z,16.63
2019-04-20T07:23:24.268Z,16.00
2019-04-20T07:25:47.372Z,13.80
2019-04-20T07:28:21.825Z,17.47
2019-04-20T07:30:52.006Z,16.10
2019-04-20T07:33:24.553Z,15.17
2019-04-20T07:35:49.327Z,13.67
2019-04-20T07:40:51.251Z,14.30
2019-04-20T07:43:19.767Z,18.27
2019-04-20T07:45:49.230Z,16.03
2019-04-20T07:48:23.530Z,14.97
2019-04-20T07:50:44.846Z,16.20
2019-04-20T07:53:24.612Z,13.67
2019-04-20T07:55:56.404Z,14.87
2019-04-20T07:58:18.413Z,13.27
2019-04-20T08:01:09.059Z,13.23
2019-04-20T08:03:43.905Z,14.33
2019-04-20T08:06:18.358Z,15.97
2019-04-20T08:09:00.472Z,13.97
2019-04-20T08:11:28.287Z,14.93
2019-04-20T08:14:09.474Z,13.93
2019-04-20T08:16:51.764Z,12.23
2019-04-20T08:19:08.415Z,15.10
2019-04-20T08:21:37.369Z,15.47
2019-04-20T08:24:02.622Z,11.97
2019-04-20T08:26:23.490Z,13.83
2019-04-20T08:28:56.922Z,14.53
2019-04-20T08:31:55.948Z,16.50
2019-04-20T08:34:35.370Z,15.00
2019-04-20T08:37:00.993Z,12.73
2019-04-20T08:39:45.040Z,14.60
2019-04-20T08:42:06.370Z,13.53
2019-04-20T08:44:55.361Z,12.07
2019-04-20T08:47:18.307Z,13.83
2019-04-20T08:49:45.511Z,12.63
2019-04-20T08:52:24.278Z,18.37
2019-04-20T08:54:34.292Z,16.90
2019-04-20T08:56:55.555Z,15.67
2019-04-20T08:59:21.055Z,13.30
2019-04-20T09:01:51.061Z,13.62
2019-04-20T09:04:32.437Z,13.43
2019-04-20T09:07:02.607Z,14.35
2019-04-20T09:12:11.953Z,15.65
2019-04-20T09:14:23.792Z,15.30
2019-04-20T09:17:07.967Z,13.98
2019-04-20T09:19:47.934Z,12.30
2019-04-20T09:22:32.953Z,13.50
2019-04-20T09:25:37.661Z,12.73
2019-04-20T09:27:36.243Z,16.65
2019-04-20T09:30:08.944Z,17.60
2019-04-20T09:32:46.371Z,14.10
2019-04-20T09:35:20.900Z,15.58
2019-04-20T09:37:57.147Z,15.98
2019-04-20T09:40:31.181Z,14.37
2019-04-20T09:42:53.785Z,13.28
2019-04-20T09:45:45.978Z,17.73
2019-04-20T09:48:19.258Z,16.27
2019-04-20T09:51:05.055Z,17.00
2019-04-20T09:53:26.883Z,15.77
2019-04-20T09:56:02.156Z,16.73
2019-04-20T09:58:26.225Z,15.13
2019-04-20T10:01:03.167Z,14.97
2019-04-20T10:03:16.885Z,16.33
2019-04-20T10:05:45.900Z,13.27
2019-04-20T10:08:15.541Z,18.17
2019-04-20T10:10:47.162Z,15.80
2019-04-20T10:13:15.454Z,17.07
2019-04-20T10:15:45.813Z,16.03
2019-04-20T10:18:15.023Z,18.00
2019-04-20T10:20:45.220Z,16.83
2019-04-20T10:23:14.416Z,12.70
2019-04-20T10:25:44.583Z,20.27
2019-04-20T10:28:13.874Z,12.30
2019-04-20T10:30:44.300Z,14.43
2019-04-20T10:33:13.632Z,13.03
2019-04-20T10:36:03.481Z,15.00
2019-04-20T10:38:35.608Z,13.57
2019-04-20T10:41:11.257Z,12.93
2019-04-20T10:43:35.030Z,17.53
2019-04-20T10:46:06.933Z,15.43
2019-04-20T10:48:41.593Z,16.47
2019-04-20T10:51:08.224Z,13.07
2019-04-20T10:53:38.335Z,12.63
2019-04-20T10:56:09.613Z,13.50
2019-04-20T10:58:40.047Z,15.87
2019-04-20T11:01:09.589Z,14.73
2019-04-20T11:03:38.586Z,13.63
2019-04-20T11:06:08.873Z,10.67
2019-04-20T11:08:38.393Z,14.00
2019-04-20T11:11:14.647Z,10.97
2019-04-20T11:13:39.366Z,11.53
2019-04-20T11:16:08.645Z,11.77
2019-04-20T11:18:39.983Z,16.70
2019-04-20T11:21:09.171Z,10.97
2019-04-20T11:23:38.436Z,12.57
2019-04-20T11:26:08.528Z,10.13
2019-04-20T11:28:37.873Z,9.90
2019-04-20T11:31:07.983Z,10.80
2019-04-20T11:33:38.290Z,12.47
2019-04-20T11:36:07.484Z,10.50
2019-04-20T11:38:36.566Z,11.43
2019-04-20T11:41:15.330Z,9.33
2019-04-20T11:43:39.879Z,9.20
2019-04-20T11:46:09.081Z,13.10
2019-04-20T11:48:39.312Z,12.47
2019-04-20T11:51:09.523Z,11.80
2019-04-20T11:53:38.668Z,11.63
2019-04-20T11:56:14.469Z,11.93
2019-04-20T11:58:40.684Z,11.97
2019-04-20T12:01:28.998Z,9.27
2019-04-20T12:04:02.887Z,10.40
2019-04-20T12:06:26.591Z,11.73
2019-04-20T12:08:57.029Z,8.83
2019-04-20T12:11:33.954Z,11.93
2019-04-20T12:13:56.777Z,13.03
2019-04-20T12:16:25.772Z,11.00
2019-04-20T12:18:54.847Z,11.97
2019-04-20T12:21:23.890Z,12.80
2019-04-20T12:23:54.019Z,12.97
2019-04-20T12:26:23.273Z,14.10
2019-04-20T12:28:53.788Z,9.83
2019-04-20T12:31:27.175Z,9.13
2019-04-20T12:33:54.768Z,10.83
2019-04-20T12:36:23.968Z,8.35
2019-04-20T12:38:53.211Z,9.63
2019-04-20T12:41:36.665Z,11.90
2019-04-20T12:43:53.885Z,7.03
2019-04-20T12:46:23.453Z,10.93
2019-04-20T12:48:53.803Z,7.10
2019-04-20T12:51:26.345Z,8.75
2019-04-20T12:53:53.350Z,8.10
2019-04-20T12:56:22.438Z,8.98
2019-04-20T12:58:51.696Z,7.87
2019-04-20T13:01:22.870Z,7.72
2019-04-20T13:03:51.562Z,8.70
2019-04-20T13:06:21.706Z,9.43
2019-04-20T13:08:54.805Z,7.72
2019-04-20T13:11:43.618Z,7.97
2019-04-20T13:14:40.157Z,9.55
2019-04-20T13:17:10.265Z,6.62
2019-04-20T13:19:42.133Z,9.08
2019-04-20T13:22:11.127Z,6.45
2019-04-20T13:24:41.356Z,10.95
2019-04-20T13:27:11.151Z,10.68
2019-04-20T13:29:40.548Z,7.55
2019-04-20T13:32:09.773Z,9.25
2019-04-20T13:34:39.078Z,9.58
2019-04-20T13:37:10.584Z,8.13
2019-04-20T13:39:40.747Z,8.30
2019-04-20T13:42:16.071Z,8.05
2019-04-20T13:44:41.085Z,8.85
2019-04-20T13:47:10.188Z,9.88
2019-04-20T13:49:39.270Z,7.83
2019-04-20T13:52:08.754Z,9.25
2019-04-20T13:54:38.056Z,10.20
2019-04-20T13:57:08.023Z,11.53
2019-04-20T13:59:44.150Z,8.65
2019-04-20T14:02:22.795Z,9.60
2019-04-20T14:04:57.000Z,7.75
2019-04-20T14:07:27.032Z,16.32
2019-04-20T14:09:57.345Z,7.53
2019-04-20T14:12:32.990Z,12.58
2019-04-20T14:14:59.429Z,9.38
2019-04-20T14:17:29.028Z,11.80
2019-04-20T14:20:01.091Z,11.30
2019-04-20T14:22:29.330Z,10.63
2019-04-20T14:24:58.907Z,11.83
2019-04-20T14:27:28.853Z,9.50
2019-04-20T14:29:59.210Z,11.00
2019-04-20T14:32:29.162Z,11.12
2019-04-20T14:34:58.804Z,12.10
2019-04-20T14:37:28.907Z,9.40
2019-04-20T14:39:58.486Z,11.00
2019-04-20T14:42:37.357Z,12.20
2019-04-20T14:44:59.641Z,10.75
2019-04-20T14:47:29.756Z,11.43
2019-04-20T14:50:01.623Z,12.60
2019-04-20T14:52:29.511Z,11.10
2019-04-20T14:54:59.702Z,8.18
2019-04-20T14:57:29.810Z,11.50
2019-04-20T15:00:03.511Z,11.73
2019-04-20T15:02:34.152Z,9.58
2019-04-20T15:05:05.456Z,9.43
2019-04-20T15:07:34.436Z,10.15
2019-04-20T15:10:04.707Z,7.85
2019-04-20T15:12:44.540Z,11.55
2019-04-20T15:15:05.028Z,8.55
2019-04-20T15:17:39.819Z,13.03
2019-04-20T15:20:37.415Z,9.75
2019-04-20T15:23:25.827Z,12.60
2019-04-20T15:25:54.950Z,8.28
2019-04-20T15:28:24.228Z,14.45
2019-04-20T15:30:54.161Z,8.43
2019-04-20T15:33:25.180Z,7.83
2019-04-20T15:35:54.225Z,10.98
2019-04-20T15:38:23.204Z,10.75
2019-04-20T15:40:53.302Z,11.40
2019-04-20T15:43:24.967Z,10.18
2019-04-20T15:45:52.927Z,13.85
2019-04-20T15:48:22.072Z,11.22
2019-04-20T15:50:51.909Z,10.43
2019-04-20T15:53:21.807Z,10.13
2019-04-20T15:55:52.284Z,8.98
2019-04-20T15:58:22.701Z,10.20
2019-04-20T16:00:52.817Z,11.93
2019-04-20T16:03:25.856Z,10.25
2019-04-20T16:05:58.918Z,7.50
2019-04-20T16:08:34.375Z,12.58
2019-04-20T16:11:04.834Z,10.98
2019-04-20T16:13:39.540Z,14.47
2019-04-20T16:16:05.857Z,12.53
2019-04-20T16:18:35.098Z,9.40
2019-04-20T16:21:10.061Z,10.50
2019-04-20T16:23:43.879Z,10.35
2019-04-20T16:26:23.859Z,14.68
2019-04-20T16:28:53.513Z,8.60
2019-04-20T16:31:22.758Z,8.63
2019-04-20T16:33:55.633Z,8.65
2019-04-20T16:36:23.791Z,9.60
2019-04-20T16:38:53.565Z,8.63
2019-04-20T16:41:22.670Z,8.13
2019-04-20T16:43:51.762Z,12.00
2019-04-20T16:46:23.880Z,10.10
2019-04-20T16:48:52.589Z,9.97
2019-04-20T16:51:22.880Z,8.83
2019-04-20T16:53:53.916Z,11.80
2019-04-20T16:56:22.990Z,12.93
2019-04-20T16:58:54.769Z,9.43
2019-04-20T17:01:23.462Z,12.17
2019-04-20T17:04:01.843Z,10.97
2019-04-20T17:06:24.529Z,7.43
2019-04-20T17:08:54.594Z,9.53
2019-04-20T17:11:23.879Z,9.67
2019-04-20T17:13:57.946Z,8.87
2019-04-20T17:16:25.850Z,7.50
2019-04-20T17:18:55.298Z,8.43
2019-04-20T17:21:27.730Z,10.67
2019-04-20T17:23:57.436Z,8.93
2019-04-20T17:26:39.094Z,11.17
2019-04-20T17:29:15.899Z,8.67
2019-04-20T17:32:11.576Z,8.87
2019-04-20T17:34:58.313Z,10.70
2019-04-20T17:37:12.874Z,13.53
2019-04-20T17:40:06.385Z,9.53
2019-04-20T17:42:32.470Z,11.50
2019-04-20T17:44:52.767Z,7.93
2019-04-20T17:47:37.344Z,11.47
2019-04-20T17:50:05.232Z,7.93
2019-04-20T17:52:41.524Z,13.30
2019-04-20T17:54:55.866Z,11.23
2019-04-20T17:57:26.288Z,11.13
2019-04-20T18:00:03.084Z,11.07
2019-04-20T18:02:58.936Z,10.80
2019-04-20T18:05:47.824Z,9.47
2019-04-20T18:08:12.091Z,12.30
2019-04-20T18:10:35.155Z,11.43
2019-04-20T18:12:54.029Z,10.90
2019-04-20T18:15:36.794Z,10.57
2019-04-20T18:18:32.376Z,12.80
2019-04-20T18:20:57.104Z,12.27
2019-04-20T18:23:33.752Z,15.10
2019-04-20T18:26:17.086Z,12.20
2019-04-20T18:28:51.634Z,10.70
2019-04-20T18:31:26.630Z,12.53
2019-04-20T18:34:06.994Z,8.97
2019-04-20T18:36:34.460Z,12.07
2019-04-20T18:39:05.002Z,9.80
2019-04-20T18:41:38.378Z,14.50
2019-04-20T18:44:02.720Z,10.70
2019-04-20T18:46:58.686Z,9.83
2019-04-20T18:49:19.957Z,9.00
2019-04-20T18:51:33.468Z,9.83
2019-04-20T18:54:10.560Z,10.17
2019-04-20T18:56:39.677Z,10.17
2019-04-20T18:59:05.246Z,11.40
2019-04-20T19:01:37.552Z,14.63
2019-04-20T19:04:05.740Z,12.37
2019-04-20T19:06:35.964Z,20.20
2019-04-20T19:09:09.494Z,12.37
2019-04-20T19:11:43.709Z,13.33
2019-04-20T19:14:42.033Z,15.30
2019-04-20T19:17:41.987Z,10.57
2019-04-20T19:20:05.751Z,12.77
2019-04-20T19:22:36.720Z,10.67
2019-04-20T19:25:05.725Z,15.70
2019-04-20T19:27:41.431Z,11.50
2019-04-20T19:30:20.298Z,15.30
2019-04-20T19:32:54.343Z,10.87
2019-04-20T19:35:24.401Z,11.33
2019-04-20T19:37:50.359Z,13.43
2019-04-20T19:40:18.279Z,12.87
2019-04-20T19:42:58.714Z,13.00
2019-04-20T19:45:39.857Z,12.33
2019-04-20T19:47:56.955Z,14.57
2019-04-20T19:50:37.696Z,12.60
2019-04-20T19:53:13.744Z,12.57
2019-04-20T19:55:27.542Z,9.60
2019-04-20T19:57:59.381Z,17.43
2019-04-20T20:00:17.087Z,17.10
2019-04-20T20:02:47.830Z,14.17
2019-04-20T20:05:19.290Z,15.67
2019-04-20T20:07:52.377Z,9.87
2019-04-20T20:10:22.001Z,13.93
2019-04-20T20:12:56.074Z,13.17
2019-04-20T20:15:27.991Z,13.13
2019-04-20T20:18:11.241Z,14.27
2019-04-20T20:20:41.423Z,12.47
2019-04-20T20:22:58.142Z,13.13
2019-04-20T20:25:32.901Z,13.57
2019-04-20T20:28:03.583Z,16.13
2019-04-20T20:30:33.174Z,13.73
2019-04-20T20:33:14.981Z,13.40
2019-04-20T20:35:31.575Z,15.40
2019-04-20T20:38:01.121Z,16.63
2019-04-20T20:41:02.576Z,13.53
2019-04-20T20:43:34.438Z,13.67
2019-04-20T20:46:01.201Z,15.50
2019-04-20T20:48:36.982Z,12.63
2019-04-20T20:51:09.191Z,12.90
2019-04-20T20:53:37.585Z,12.80
2019-04-20T20:56:01.904Z,15.43
2019-04-20T20:58:36.125Z,14.50
2019-04-20T21:01:02.725Z,17.07
2019-04-20T21:03:32.176Z,15.40
2019-04-20T21:05:55.678Z,15.23
2019-04-20T21:08:25.847Z,14.03
2019-04-20T21:10:54.987Z,14.13
2019-04-20T21:13:25.942Z,15.27
2019-04-20T21:16:02.545Z,15.37
2019-04-20T21:18:42.247Z,16.20
2019-04-20T21:21:13.014Z,12.93
2019-04-20T21:23:40.995Z,13.60
2019-04-20T21:26:21.459Z,15.20
2019-04-20T21:28:41.995Z,15.47
2019-04-20T21:31:16.231Z,15.00
2019-04-20T21:33:42.851Z,17.03
2019-04-20T21:36:18.382Z,19.07
2019-04-20T21:38:45.137Z,15.20
2019-04-20T21:41:16.874Z,12.60
2019-04-20T21:43:46.408Z,16.80
2019-04-20T21:46:16.547Z,16.47
2019-04-20T21:49:00.662Z,18.07
2019-04-20T21:51:30.406Z,15.93
2019-04-20T21:53:48.377Z,17.93
2019-04-20T21:56:17.708Z,18.77
2019-04-20T21:58:50.447Z,18.97
2019-04-20T22:01:25.271Z,21.10
2019-04-20T22:03:50.313Z,19.83
2019-04-20T22:06:20.278Z,16.10
2019-04-20T22:08:54.509Z,16.57
2019-04-20T22:11:21.833Z,17.00
2019-04-20T22:13:53.367Z,16.03
2019-04-20T22:16:25.599Z,18.30
2019-04-20T22:19:09.129Z,19.93
2019-04-20T22:21:35.422Z,17.23
2019-04-20T22:24:10.545Z,17.83
2019-04-20T22:26:34.157Z,21.47
2019-04-20T22:28:58.303Z,15.90
2019-04-20T22:31:27.251Z,19.50
2019-04-20T22:34:00.825Z,18.37
2019-04-20T22:36:34.347Z,15.97
2019-04-20T22:39:18.726Z,16.27
2019-04-20T22:42:00.247Z,20.53
2019-04-20T22:44:28.387Z,16.90
2019-04-20T22:46:56.393Z,20.20
2019-04-20T22:49:43.100Z,16.07
2019-04-20T22:52:06.411Z,15.70
2019-04-20T22:54:42.319Z,19.60
2019-04-20T22:57:08.687Z,17.53
2019-04-20T22:59:38.305Z,22.43
2019-04-20T23:02:01.189Z,15.90
2019-04-20T23:04:30.855Z,18.87
2019-04-20T23:07:00.969Z,18.53
2019-04-20T23:09:34.214Z,17.03
2019-04-20T23:12:08.030Z,18.77
2019-04-20T23:14:32.096Z,20.67
2019-04-20T23:17:02.116Z,24.37
2019-04-20T23:19:40.656Z,25.47
2019-04-20T23:22:05.330Z,19.80
2019-04-20T23:24:33.208Z,20.50
2019-04-20T23:27:10.922Z,20.13
2019-04-20T23:29:37.929Z,21.70
2019-04-20T23:32:09.473Z,26.50
2019-04-20T23:34:37.642Z,23.17
2019-04-20T23:37:16.274Z,19.60
2019-04-20T23:39:42.867Z,20.73
2019-04-20T23:42:12.468Z,20.23
2019-04-20T23:45:11.546Z,23.57
2019-04-20T23:47:52.216Z,22.07
2019-04-20T23:50:36.919Z,21.87
2019-04-20T23:53:08.678Z,22.93
2019-04-20T23:55:19.020Z,23.73
2019-04-20T23:57:56.229Z,18.67
